Time;durP1;ratioP1;P1;durP2;ratioP2;P2;SDS_P1;SDS_P2;PMS_P1;PMS_P2;Temp;Humidity;BMP_temperature;BMP_pressure;BME280_temperature;BME280_humidity;BME280_pressure;Samples;Min_cycle;Max_cycle;Signal;HPM_P1;HPM_P2
2022/02/11 00:06:26;;;;;;;8.77;4.30;;;3.20;99.90;;;3.82;100.00;101040.19;5052841;28;20052;-78
2022/02/11 00:08:13;;;;;;;11.13;4.97;;;3.20;99.90;;;3.87;100.00;101044.81;5041768;28;20045;-78
2022/02/11 00:10:42;;;;;;;10.48;4.13;;;3.20;99.90;;;3.83;100.00;101052.06;5034573;28;20115;-77
2022/02/11 00:13:08;;;;;;;7.82;4.43;;;3.10;99.90;;;3.86;100.00;101044.00;5051742;28;20033;-79
2022/02/11 00:15:42;;;;;;;8.07;4.60;;;3.10;99.90;;;3.88;100.00;101047.28;5034407;28;20021;-77
2022/02/11 00:18:16;;;;;;;8.80;4.88;;;3.20;99.90;;;3.87;100.00;101045.66;5034150;28;20052;-78
2022/02/11 00:20:53;;;;;;;10.90;5.65;;;3.20;99.90;;;3.80;100.00;101036.94;5052297;28;20056;-79
2022/02/11 00:23:22;;;;;;;12.40;5.50;;;3.10;99.90;;;3.79;100.00;101048.31;5052409;28;20032;-77
2022/02/11 00:25:59;;;;;;;8.93;4.40;;;3.10;99.90;;;3.83;100.00;101049.31;5053009;28;20488;-78
2022/02/11 00:33:40;;;;;;;10.95;6.05;;;3.20;99.90;;;3.99;100.00;101056.19;5052153;28;20373;-77
2022/02/11 00:36:09;;;;;;;15.15;6.22;;;3.20;99.90;;;4.04;100.00;101045.88;5052583;28;20028;-80
2022/02/11 00:42:34;;;;;;;12.80;6.70;;;3.30;99.90;;;4.05;100.00;101030.09;5052108;28;20507;-78
2022/02/11 01:03:49;;;;;;;16.10;9.07;;;3.40;99.90;;;4.12;100.00;101036.88;5071544;28;20036;-77
2022/02/11 01:06:15;;;;;;;19.38;9.43;;;3.40;99.90;;;4.05;100.00;101046.69;5072016;28;20027;-78
2022/02/11 01:08:41;;;;;;;19.90;10.77;;;3.40;99.90;;;4.11;100.00;101051.81;5071238;28;20036;-77
2022/02/11 01:11:17;;;;;;;18.90;10.63;;;3.50;99.90;;;4.11;100.00;101064.84;5071093;28;20052;-78
2022/02/11 01:13:43;;;;;;;18.98;11.38;;;3.50;99.90;;;4.14;100.00;101061.47;5071447;28;20095;-78
2022/02/11 01:16:14;;;;;;;20.02;11.52;;;3.50;99.90;;;4.23;100.00;101065.16;5071060;28;20128;-78
2022/02/11 01:18:46;;;;;;;18.70;11.60;;;3.50;99.90;;;4.20;100.00;101063.84;5070978;28;20056;-79
2022/02/11 01:21:26;;;;;;;18.48;10.73;;;3.50;99.90;;;4.34;100.00;101063.81;5053199;28;20024;-78
2022/02/11 01:24:06;;;;;;;21.75;11.05;;;3.50;99.90;;;4.32;100.00;101063.31;5072164;28;20459;-79
2022/02/11 01:26:53;;;;;;;24.45;12.85;;;3.50;99.90;;;4.29;100.00;101055.63;5057543;28;20471;-78
2022/02/11 01:32:00;;;;;;;19.05;12.20;;;3.60;99.90;;;4.42;100.00;101052.06;5075268;28;20039;-77
2022/02/11 01:34:55;;;;;;;20.60;11.90;;;3.60;99.90;;;4.33;100.00;101051.13;5075416;28;20081;-79
2022/02/11 01:53:52;;;;;;;25.00;13.13;;;3.10;99.90;;;3.68;100.00;101011.72;5035174;28;20056;-79
2022/02/11 01:56:40;;;;;;;22.23;13.07;;;3.00;99.90;;;3.69;100.00;101021.66;5017222;28;20021;-79
2022/02/11 02:26:08;;;;;;;26.42;14.85;;;2.70;99.90;;;3.30;100.00;101016.53;5034539;28;20040;-77
2022/02/11 02:32:54;;;;;;;30.33;17.48;;;2.70;99.90;;;3.26;100.00;101000.84;4934788;29;20215;-79
2022/02/11 02:35:40;;;;;;;32.45;17.42;;;2.60;99.90;;;3.24;100.00;100994.81;5033538;28;20040;-79
2022/02/11 02:38:43;;;;;;;34.55;17.33;;;2.60;99.90;;;3.24;100.00;100998.41;5033970;28;20048;-79
2022/02/11 02:58:02;;;;;;;31.70;17.92;;;2.60;99.90;;;3.19;100.00;100990.19;5074006;28;20044;-79
2022/02/11 03:17:35;;;;;;;29.15;14.57;;;2.40;99.90;;;2.97;100.00;100992.75;5074002;28;20075;-76
2022/02/11 04:55:26;;;;;;;21.98;13.90;;;3.10;99.90;;;3.73;100.00;101030.97;5072731;28;20077;-79
2022/02/11 05:00:47;;;;;;;26.85;13.48;;;3.20;99.90;;;3.78;100.00;101035.59;5072086;28;20040;-80
2022/02/11 05:03:14;;;;;;;21.63;14.25;;;3.10;99.90;;;3.75;100.00;101031.50;5072217;28;20034;-79
2022/02/11 05:05:49;;;;;;;24.67;13.68;;;3.10;99.90;;;3.77;100.00;101048.59;5073094;28;20043;-81
2022/02/11 05:08:24;;;;;;;24.27;14.45;;;3.10;99.90;;;3.69;100.00;101033.50;5073891;28;20033;-82
2022/02/11 05:10:56;;;;;;;24.42;13.50;;;3.20;99.90;;;3.77;100.00;101050.53;5056127;28;20066;-81
2022/02/11 05:13:24;;;;;;;21.90;13.70;;;3.10;99.90;;;3.78;100.00;101043.88;5073208;28;20067;-80
2022/02/11 05:15:50;;;;;;;26.65;14.10;;;3.20;99.90;;;3.84;100.00;101049.00;5072204;28;20495;-77
2022/02/11 05:18:19;;;;;;;26.90;14.10;;;3.20;99.90;;;3.88;100.00;101054.75;5072386;28;20391;-79
2022/02/11 05:20:48;;;;;;;19.65;12.98;;;3.20;99.90;;;3.79;100.00;101059.34;5071899;28;20033;-78
2022/02/11 05:23:20;;;;;;;25.02;14.23;;;3.30;99.90;;;3.89;100.00;101059.16;5053788;28;20024;-77
2022/02/11 05:25:46;;;;;;;25.77;14.00;;;3.30;99.90;;;3.93;100.00;101049.94;5054092;28;20031;-80
2022/02/11 05:28:13;;;;;;;25.80;14.48;;;3.30;99.90;;;3.81;100.00;101065.38;5053890;28;20056;-77
2022/02/11 05:30:42;;;;;;;23.27;15.32;;;3.30;99.90;;;3.94;100.00;101067.34;5071783;28;20059;-76
2022/02/11 05:33:10;;;;;;;30.02;15.82;;;3.30;99.90;;;3.95;100.00;101066.25;5053805;28;20032;-78
2022/02/11 05:35:39;;;;;;;28.83;15.80;;;3.30;99.90;;;3.93;100.00;101065.72;5071742;28;20082;-79
2022/02/11 05:38:11;;;;;;;28.50;16.25;;;3.30;99.90;;;3.99;100.00;101059.78;5053956;28;20454;-78
2022/02/11 05:40:40;;;;;;;25.67;17.58;;;3.30;99.90;;;3.99;100.00;101056.19;5053991;28;20029;-80
2022/02/11 05:43:06;;;;;;;35.42;16.85;;;3.30;99.90;;;3.92;100.00;101056.59;5054538;28;20306;-78
2022/02/11 05:45:40;;;;;;;32.15;16.95;;;3.30;99.90;;;3.92;100.00;101069.59;5071601;28;20411;-78
2022/02/11 05:48:10;;;;;;;28.75;17.00;;;3.30;99.90;;;4.04;100.00;101075.47;5053815;28;20036;-80
2022/02/11 05:50:37;;;;;;;34.28;17.15;;;3.40;99.90;;;3.93;100.00;101063.78;5036526;28;20044;-78
2022/02/11 05:53:08;;;;;;;27.25;15.35;;;3.40;99.90;;;4.03;100.00;101071.06;5033940;28;20033;-79
2022/02/11 05:55:36;;;;;;;30.63;16.65;;;3.40;99.90;;;4.17;100.00;101083.75;5034607;28;20028;-79
2022/02/11 05:58:03;;;;;;;27.35;15.80;;;3.50;99.90;;;4.21;100.00;101087.56;5034440;28;20027;-76
2022/02/11 06:00:29;;;;;;;36.72;16.73;;;3.50;99.90;;;4.14;100.00;101078.84;5034102;28;20035;-79
2022/02/11 06:02:55;;;;;;;28.45;15.18;;;3.60;99.90;;;4.22;100.00;101105.81;5052246;28;20033;-79
2022/02/11 06:05:25;;;;;;;29.13;15.02;;;3.60;99.90;;;4.31;100.00;101108.69;5033935;28;20040;-78
2022/02/11 06:07:54;;;;;;;23.90;14.43;;;3.60;99.90;;;4.36;100.00;101114.13;5053697;28;20037;-79
2022/02/11 06:10:20;;;;;;;25.88;14.70;;;3.70;99.90;;;4.37;100.00;101109.38;5039125;28;20062;-79
2022/02/11 06:12:47;;;;;;;29.48;14.40;;;3.70;99.90;;;4.27;100.00;101101.31;5040660;28;20029;-78
2022/02/11 06:15:13;;;;;;;23.20;12.70;;;3.60;99.90;;;4.27;100.00;101120.66;5056562;28;20025;-78
2022/02/11 06:17:39;;;;;;;28.40;13.50;;;3.60;99.90;;;4.40;100.00;101117.91;5039311;28;20484;-80
2022/02/11 06:20:08;;;;;;;33.72;14.00;;;3.70;99.90;;;4.35;100.00;101126.31;5056421;28;20025;-78
2022/02/11 06:22:35;;;;;;;24.38;13.38;;;3.70;99.90;;;4.41;100.00;101115.97;5056427;28;20376;-78
2022/02/11 06:25:00;;;;;;;26.42;13.32;;;3.70;99.90;;;4.50;100.00;101131.53;5037916;28;20037;-77
2022/02/11 06:27:27;;;;;;;29.65;12.60;;;3.70;99.90;;;4.45;100.00;101139.94;5054120;28;20407;-79
2022/02/11 06:29:53;;;;;;;26.48;13.48;;;3.80;99.90;;;4.46;100.00;101138.84;5055703;28;20032;-78
2022/02/11 06:32:20;;;;;;;26.15;11.13;;;3.80;99.90;;;4.55;100.00;101147.22;5037718;28;20033;-77
2022/02/11 06:34:46;;;;;;;25.63;12.27;;;3.90;99.90;;;4.69;100.00;101148.88;5054407;28;20458;-78
2022/02/11 06:37:12;;;;;;;31.15;11.38;;;3.90;99.90;;;4.75;100.00;101158.72;5053963;28;20078;-82
2022/02/11 06:39:56;;;;;;;22.40;9.63;;;3.90;99.90;;;4.81;100.00;101162.22;5054624;28;20024;-79
2022/02/11 06:42:22;;;;;;;25.17;9.48;;;4.00;99.90;;;4.79;100.00;101170.00;5055318;28;20507;-78
2022/02/11 06:44:48;;;;;;;25.08;9.20;;;4.10;99.90;;;4.89;100.00;101180.03;5055682;28;20021;-81
2022/02/11 06:47:14;;;;;;;22.38;8.68;;;4.10;99.90;;;4.84;100.00;101177.38;5054302;28;20464;-79
2022/02/11 06:49:39;;;;;;;17.10;8.68;;;4.10;99.90;;;4.84;100.00;101183.75;5046031;28;20024;-79
2022/02/11 06:52:12;;;;;;;17.38;7.28;;;4.20;99.90;;;4.99;100.00;101177.88;5073214;28;20444;-81
2022/02/11 06:54:37;;;;;;;21.85;7.90;;;4.20;99.90;;;5.01;100.00;101186.69;5074834;28;20020;-78
2022/02/11 06:57:04;;;;;;;12.48;5.43;;;4.30;99.90;;;4.99;100.00;101202.81;5057052;28;20020;-79
2022/02/11 06:59:29;;;;;;;16.50;4.65;;;4.30;99.90;;;5.04;100.00;101208.22;5075001;28;20029;-77
2022/02/11 07:01:59;;;;;;;17.70;5.15;;;4.40;99.90;;;5.09;100.00;101215.63;5057769;28;20035;-79
2022/02/11 07:04:31;;;;;;;20.00;4.28;;;4.40;99.90;;;5.12;100.00;101217.78;5076898;28;20029;-80
2022/02/11 07:06:57;;;;;;;18.35;4.97;;;4.50;99.90;;;5.20;100.00;101230.91;5058933;28;20099;-78
2022/02/11 07:09:22;;;;;;;21.25;4.28;;;4.50;99.90;;;5.11;100.00;101241.88;5057061;28;20487;-80
2022/02/11 07:11:48;;;;;;;16.52;4.05;;;4.60;99.90;;;5.13;100.00;101247.13;5053396;28;20119;-77
2022/02/11 07:14:14;;;;;;;13.73;3.65;;;4.50;99.90;;;5.19;100.00;101243.94;5058602;28;20029;-76
2022/02/11 07:16:47;;;;;;;13.40;3.42;;;4.60;99.90;;;5.28;100.00;101260.66;5060983;28;20439;-79
2022/02/11 07:19:13;;;;;;;15.32;3.63;;;4.70;99.90;;;5.31;100.00;101255.31;5060515;28;20016;-79
2022/02/11 07:21:41;;;;;;;16.08;3.85;;;4.70;99.90;;;5.35;100.00;101265.78;5075530;28;20138;-78
2022/02/11 07:24:08;;;;;;;14.48;3.17;;;4.70;99.90;;;5.35;100.00;101277.69;5075742;28;20028;-78
2022/02/11 07:26:33;;;;;;;8.93;3.03;;;4.70;99.90;;;5.33;100.00;101279.91;5075377;28;20062;-80
2022/02/11 07:29:00;;;;;;;13.80;3.30;;;4.70;99.90;;;5.37;100.00;101289.25;5074597;28;20029;-76
2022/02/11 07:31:27;;;;;;;14.93;3.08;;;4.70;99.90;;;5.39;100.00;101286.19;5075114;28;20027;-81
2022/02/11 07:33:53;;;;;;;14.73;3.03;;;4.70;99.90;;;5.43;100.00;101295.50;5088291;28;20040;-78
2022/02/11 07:36:19;;;;;;;14.93;2.97;;;4.70;99.90;;;5.42;100.00;101304.97;5074678;28;20025;-80
2022/02/11 07:38:46;;;;;;;16.90;2.92;;;4.80;99.90;;;5.51;100.00;101306.72;5074378;28;20474;-81
2022/02/11 07:41:18;;;;;;;10.60;2.53;;;4.80;99.90;;;5.40;100.00;101316.34;5073956;28;20088;-80
2022/02/11 07:43:47;;;;;;;14.27;2.40;;;4.80;99.90;;;5.35;100.00;101310.09;5070252;28;20055;-77
2022/02/11 07:46:14;;;;;;;12.20;1.92;;;4.80;99.90;;;5.33;100.00;101321.47;5064922;28;20024;-78
2022/02/11 07:48:40;;;;;;;10.45;2.47;;;4.80;99.90;;;5.34;100.00;101342.50;5059290;28;20028;-80
2022/02/11 07:51:14;;;;;;;9.93;2.60;;;4.70;99.90;;;5.28;100.00;101335.44;5042911;28;20186;-78
2022/02/11 07:53:40;;;;;;;9.77;1.88;;;4.70;99.90;;;5.26;100.00;101334.94;5042864;28;20048;-79
2022/02/11 07:56:09;;;;;;;12.23;2.53;;;4.70;99.90;;;5.24;100.00;101338.00;5058675;28;20483;-80
2022/02/11 07:58:35;;;;;;;15.73;2.30;;;4.70;99.90;;;5.37;100.00;101347.44;5058172;28;20029;-79
2022/02/11 08:01:00;;;;;;;15.43;1.98;;;4.70;99.90;;;5.48;100.00;101339.75;5058169;28;20047;-79
2022/02/11 08:03:28;;;;;;;14.70;3.67;;;4.80;99.90;;;5.44;100.00;101367.25;5083591;28;20029;-77
2022/02/11 08:05:56;;;;;;;20.95;2.83;;;4.80;99.90;;;5.50;100.00;101381.81;5083082;28;20086;-79
2022/02/11 08:08:31;;;;;;;12.45;2.33;;;4.90;99.90;;;5.38;100.00;101393.41;5065739;28;20024;-80
2022/02/11 08:10:58;;;;;;;10.30;2.47;;;4.80;99.90;;;5.35;100.00;101387.66;5084309;28;20063;-79
2022/02/11 08:13:26;;;;;;;17.13;3.38;;;4.80;99.90;;;5.39;100.00;101385.94;5070813;28;20559;-78
2022/02/11 08:15:53;;;;;;;16.27;2.80;;;4.80;99.90;;;5.49;100.00;101388.50;5061196;28;20023;-79
2022/02/11 08:18:19;;;;;;;14.43;2.88;;;4.90;99.90;;;5.60;100.00;101403.81;5081308;28;20029;-78
2022/02/11 08:20:45;;;;;;;17.48;2.90;;;4.90;99.90;;;5.65;100.00;101412.81;5064535;28;20039;-78
2022/02/11 08:23:11;;;;;;;11.35;1.98;;;4.90;99.90;;;5.63;100.00;101414.28;5077703;28;20044;-77
2022/02/11 08:25:36;;;;;;;9.32;1.92;;;5.00;99.90;;;5.58;100.00;101417.16;5083771;28;20115;-79
2022/02/11 08:28:03;;;;;;;13.05;2.58;;;5.00;99.90;;;5.60;100.00;101426.78;5083203;28;20051;-79
2022/02/11 08:30:29;;;;;;;15.38;2.67;;;4.90;99.90;;;5.52;100.00;101419.19;5075981;28;20032;-78
2022/02/11 08:32:56;;;;;;;11.18;2.72;;;4.90;99.90;;;5.47;100.00;101430.38;5075504;28;20438;-78
2022/02/11 08:35:24;;;;;;;10.80;2.00;;;4.90;99.90;;;5.43;100.00;101447.88;5076579;28;20091;-80
2022/02/11 08:37:50;;;;;;;12.82;1.90;;;4.80;99.90;;;5.36;100.00;101442.78;5074703;28;20561;-78
2022/02/11 08:40:16;;;;;;;17.80;2.38;;;4.70;99.90;;;5.34;100.00;101445.00;5059273;28;20024;-80
2022/02/11 08:42:42;;;;;;;14.25;3.08;;;4.70;99.90;;;5.39;100.00;101453.25;5057415;28;20031;-79
2022/02/11 08:45:12;;;;;;;13.50;2.20;;;4.70;99.90;;;5.42;100.00;101454.59;5057595;28;20064;-79
2022/02/11 08:47:41;;;;;;;15.43;2.40;;;4.70;99.90;;;5.45;100.00;101443.72;5057182;28;20086;-80
2022/02/11 08:50:08;;;;;;;17.77;2.95;;;4.70;99.90;;;5.44;100.00;101458.69;5049997;28;20076;-82
2022/02/11 08:52:35;;;;;;;19.15;3.53;;;4.80;99.90;;;5.59;100.00;101471.44;5044094;28;20025;-78
2022/02/11 08:55:05;;;;;;;13.10;3.13;;;5.00;99.90;;;5.61;100.00;101477.50;5059852;28;20524;-80
2022/02/11 08:57:32;;;;;;;12.43;2.85;;;5.00;99.90;;;5.70;100.00;101500.63;5042526;28;20032;-80
2022/02/11 08:59:58;;;;;;;16.08;2.95;;;5.00;99.90;;;5.71;100.00;101493.94;5043122;28;20025;-79
2022/02/11 09:02:24;;;;;;;21.27;4.10;;;5.00;99.90;;;5.74;100.00;101498.88;5056642;28;20029;-82
2022/02/11 09:04:53;;;;;;;17.30;3.25;;;5.00;99.90;;;5.76;100.00;101502.16;5066481;28;20106;-82
2022/02/11 09:07:22;;;;;;;14.18;3.05;;;5.10;99.90;;;5.66;100.00;101497.63;5046516;28;20108;-80
2022/02/11 09:09:48;;;;;;;10.80;2.60;;;5.00;99.90;;;5.59;100.00;101505.50;5070100;28;20108;-79
2022/02/11 09:12:17;;;;;;;17.48;3.13;;;5.00;99.90;;;5.57;100.00;101506.94;5069167;28;20029;-80
2022/02/11 09:14:45;;;;;;;14.57;3.17;;;5.00;99.90;;;5.56;100.00;101500.56;5048088;28;20109;-79
2022/02/11 09:17:11;;;;;;;17.23;3.70;;;5.00;99.90;;;5.54;100.00;101521.41;5046833;28;20025;-80
2022/02/11 09:19:36;;;;;;;14.93;3.15;;;5.10;99.90;;;5.58;100.00;101525.22;5043957;28;20036;-80
2022/02/11 09:22:04;;;;;;;16.80;3.33;;;5.00;99.90;;;5.55;100.00;101532.22;5062362;28;20053;-81
2022/02/11 09:24:30;;;;;;;20.25;4.53;;;5.00;99.90;;;5.65;99.11;101539.53;5057870;28;20025;-80
2022/02/11 09:26:55;;;;;;;24.50;7.47;;;5.10;99.90;;;5.54;98.87;101536.09;5056613;28;20071;-80
2022/02/11 09:29:24;;;;;;;21.88;6.55;;;5.00;99.90;;;5.67;99.34;101537.25;5039970;28;20127;-77
2022/02/11 09:31:56;;;;;;;27.45;6.95;;;5.10;99.90;;;6.06;97.70;101553.50;5057255;28;20428;-79
2022/02/11 09:34:22;;;;;;;17.40;4.80;;;5.40;99.90;;;6.19;94.98;101545.19;5057472;28;20040;-79
2022/02/11 09:36:48;;;;;;;19.52;5.43;;;5.50;99.90;;;6.13;94.95;101548.38;5056809;28;20112;-80
2022/02/11 09:39:14;;;;;;;17.17;4.20;;;5.50;99.90;;;6.15;94.67;101546.09;5038801;28;20059;-76
2022/02/11 09:41:42;;;;;;;16.35;3.50;;;5.60;99.90;;;6.22;94.69;101568.72;5057411;28;20430;-78
2022/02/11 09:44:08;;;;;;;15.43;3.42;;;5.60;99.90;;;6.14;92.69;101574.97;5056692;28;20025;-79
2022/02/11 09:46:38;;;;;;;17.15;2.90;;;5.60;99.90;;;6.21;92.26;101561.53;5055502;28;20072;-77
2022/02/11 09:49:07;;;;;;;16.73;3.40;;;5.60;99.90;;;6.31;92.28;101573.25;5063143;28;20499;-81
2022/02/11 09:51:48;;;;;;;23.73;3.00;;;5.70;99.90;;;6.47;91.25;101597.91;5059823;28;20475;-79
2022/02/11 09:54:18;;;;;;;17.33;3.45;;;5.80;99.90;;;6.48;89.74;101580.97;5059691;28;20035;-78
2022/02/11 09:56:51;;;;;;;14.77;3.50;;;5.80;99.90;;;6.43;88.78;101591.31;5060897;28;20032;-77
2022/02/11 09:59:18;;;;;;;22.70;3.15;;;5.80;99.90;;;6.39;87.76;101610.53;5079680;28;20048;-79
2022/02/11 10:01:45;;;;;;;21.80;3.13;;;5.80;99.90;;;6.28;87.86;101592.47;5079631;28;20029;-78
2022/02/11 10:04:13;;;;;;;17.83;2.78;;;5.80;99.90;;;6.49;88.72;101610.34;5059256;28;20028;-78
2022/02/11 10:06:40;;;;;;;13.32;2.22;;;5.80;99.90;;;6.52;87.56;101606.16;5058748;28;20029;-77
2022/02/11 10:09:07;;;;;;;19.00;3.80;;;5.90;99.90;;;6.53;87.40;101616.94;5059994;28;20028;-78
2022/02/11 10:11:35;;;;;;;24.13;3.45;;;5.90;99.90;;;6.62;86.06;101623.41;5079371;28;20052;-78
2022/02/11 10:14:41;;;;;;;22.17;2.95;;;6.00;99.90;;;6.61;85.17;101620.97;5079079;28;20064;-78
2022/02/11 10:17:17;;;;;;;19.23;2.85;;;6.00;99.90;;;6.76;85.25;101635.34;4980396;28;20031;-78
2022/02/11 10:19:52;;;;;;;15.77;3.20;;;6.10;99.90;;;6.59;84.60;101637.09;5019932;22;20041;-80
2022/02/11 10:22:28;;;;;;;21.70;3.10;;;6.00;99.90;;;6.60;85.35;101641.50;5046454;28;20404;-82
2022/02/11 10:24:58;;;;;;;19.50;3.78;;;6.00;99.90;;;6.48;84.72;101650.34;5046006;28;20032;-82
2022/02/11 10:27:35;;;;;;;19.65;3.28;;;5.90;99.90;;;6.40;85.14;101655.78;5047179;28;20032;-81
2022/02/11 10:30:10;;;;;;;13.93;3.20;;;5.90;99.90;;;6.55;85.52;101667.41;5048220;28;20040;-83
2022/02/11 10:32:52;;;;;;;19.20;2.43;;;5.90;99.90;;;6.53;84.08;101680.78;5045874;28;20047;-85
2022/02/11 10:35:27;;;;;;;18.23;3.08;;;5.90;99.90;;;6.46;85.23;101674.81;5062407;28;20033;-83
2022/02/11 10:38:19;;;;;;;19.75;2.85;;;5.80;99.90;;;6.50;84.33;101678.63;5045277;28;20028;-83
2022/02/11 10:40:45;;;;;;;16.02;2.65;;;5.90;99.90;;;6.51;84.80;101687.78;5060585;28;20037;-83
2022/02/11 10:43:29;;;;;;;14.98;2.90;;;5.80;99.90;;;6.55;85.03;101686.84;5047830;28;20393;-82
2022/02/11 10:46:00;;;;;;;21.63;4.18;;;5.90;99.90;;;6.54;82.15;101696.31;5070612;28;20077;-80
2022/02/11 10:48:26;;;;;;;12.38;2.63;;;5.90;99.90;;;6.65;81.98;101694.97;5055123;28;20047;-84
2022/02/11 10:50:58;;;;;;;17.27;3.17;;;6.00;99.90;;;6.67;80.61;101689.13;5075461;28;20032;-82
2022/02/11 10:53:34;;;;;;;17.52;2.80;;;6.00;99.90;;;6.51;79.34;101704.44;5072067;28;20064;-84
2022/02/11 10:56:03;;;;;;;16.77;3.03;;;6.00;99.90;;;6.50;79.30;101702.78;5059897;28;20115;-82
2022/02/11 10:58:32;;;;;;;19.52;3.42;;;6.00;99.90;;;6.60;78.50;101713.69;5059875;28;20030;-81
2022/02/11 11:01:04;;;;;;;11.18;2.50;;;6.00;99.90;;;6.65;77.54;101710.81;5078190;28;20051;-83
2022/02/11 11:03:35;;;;;;;16.17;2.53;;;6.00;99.90;;;6.64;78.20;101721.13;5076942;28;20028;-84
2022/02/11 11:06:07;;;;;;;10.70;2.55;;;6.00;99.90;;;6.66;76.50;101718.84;5062691;28;20039;-82
2022/02/11 11:08:39;;;;;;;14.73;2.75;;;6.10;99.90;;;6.70;78.35;101728.22;5065439;28;20490;-81
2022/02/11 11:11:10;;;;;;;23.83;3.40;;;6.10;99.90;;;6.77;76.12;101730.59;5064249;28;20028;-81
2022/02/11 11:13:38;;;;;;;16.08;2.60;;;6.10;99.90;;;6.86;76.06;101725.97;5063310;28;20063;-81
2022/02/11 11:16:10;;;;;;;19.75;3.58;;;6.20;99.90;;;7.11;74.73;101755.19;5078722;28;20025;-82
2022/02/11 11:18:38;;;;;;;13.25;2.25;;;6.30;99.90;;;6.99;74.04;101741.00;5060110;28;20025;-83
2022/02/11 11:21:10;;;;;;;18.38;3.30;;;6.40;99.90;;;6.95;73.52;101738.00;5061327;28;20504;-83
2022/02/11 11:23:52;;;;;;;17.90;3.17;;;6.40;99.90;;;7.06;73.07;101745.03;5078993;28;20107;-82
2022/02/11 11:26:17;;;;;;;14.73;3.20;;;6.40;99.90;;;7.14;74.27;101762.91;5076817;28;20032;-82
2022/02/11 11:28:52;;;;;;;14.95;2.90;;;6.50;99.90;;;7.12;72.89;101773.53;5078379;28;20100;-85
2022/02/11 11:31:30;;;;;;;19.17;3.55;;;6.40;99.90;;;7.11;73.59;101771.88;5067501;28;20052;-82
2022/02/11 11:34:14;;;;;;;18.45;2.58;;;6.40;99.90;;;7.08;71.55;101764.16;5059643;28;20032;-81
2022/02/11 11:36:55;;;;;;;21.90;3.60;;;6.40;99.90;;;7.09;71.80;101776.91;5057817;28;20025;-83
2022/02/11 11:39:22;;;;;;;14.65;2.58;;;6.40;99.90;;;7.07;71.49;101779.16;5059696;28;20513;-81
2022/02/11 11:42:06;;;;;;;12.88;2.45;;;6.40;99.90;;;7.22;70.79;101776.94;5079973;28;20086;-83
2022/02/11 11:44:56;;;;;;;10.52;2.35;;;6.60;99.90;;;7.47;69.15;101791.41;5082277;28;20035;-80
2022/02/11 11:47:38;;;;;;;15.10;2.45;;;6.70;99.90;;;7.81;69.62;101794.56;5066292;28;20392;-84
2022/02/11 11:50:07;;;;;;;15.82;2.75;;;7.00;99.90;;;7.67;68.41;101797.41;5052298;28;20051;-84
2022/02/11 11:52:47;;;;;;;12.13;2.33;;;7.00;99.90;;;7.60;65.81;101801.72;5045430;28;20029;-83
2022/02/11 11:55:23;;;;;;;15.60;4.15;;;7.00;99.90;;;7.68;67.06;101800.97;5038749;28;20107;-80
2022/02/11 11:57:52;;;;;;;17.27;2.72;;;7.00;99.90;;;7.67;65.92;101797.41;5039078;28;20029;-81
2022/02/11 12:00:37;;;;;;;20.75;3.20;;;7.00;99.90;;;7.80;66.50;101790.97;5040041;28;20086;-81
2022/02/11 12:03:03;;;;;;;11.50;2.23;;;7.10;99.90;;;7.96;65.80;101803.38;5038235;28;20111;-81
2022/02/11 12:05:53;;;;;;;13.00;2.83;;;7.20;99.90;;;7.84;64.84;101788.38;5055073;28;20279;-81
2022/02/11 12:08:22;;;;;;;14.00;2.80;;;7.20;99.90;;;8.29;65.79;101809.63;5035870;28;20552;-82
2022/02/11 12:10:49;;;;;;;9.85;2.22;;;7.50;99.90;;;8.64;63.12;101812.66;5039606;28;20041;-83
2022/02/11 12:13:17;;;;;;;8.35;2.50;;;7.80;99.90;;;8.32;62.44;101795.06;5041733;28;20508;-84
2022/02/11 12:15:44;;;;;;;7.97;1.92;;;7.80;99.90;;;8.25;62.37;101816.91;5042423;28;20029;-82
2022/02/11 12:18:10;;;;;;;18.42;3.08;;;7.60;99.90;;;7.95;62.89;101832.38;5040861;28;20044;-81
2022/02/11 12:20:38;;;;;;;10.27;2.10;;;7.40;99.90;;;7.78;63.45;101823.00;5042341;28;20032;-83
2022/02/11 12:28:38;;;;;;;12.95;2.35;;;7.30;99.90;;;8.04;64.09;101826.88;5061036;28;20036;-83
2022/02/11 12:31:06;;;;;;;11.05;2.20;;;7.30;99.90;;;7.79;63.04;101842.19;5042556;28;20025;-84
2022/02/11 12:33:34;;;;;;;12.38;2.28;;;7.20;99.90;;;7.65;64.01;101835.78;5042958;28;20039;-84
2022/02/11 12:36:12;;;;;;;17.92;2.47;;;7.00;99.90;;;7.77;64.82;101838.06;5042935;28;20265;-82
2022/02/11 12:38:39;;;;;;;10.43;2.08;;;7.00;99.90;;;7.76;63.71;101839.19;5060339;28;20495;-80
2022/02/11 12:41:05;;;;;;;12.07;2.08;;;7.00;99.90;;;7.88;63.53;101833.91;5040515;28;20021;-81
2022/02/11 12:43:31;;;;;;;12.32;1.95;;;7.10;99.90;;;8.06;62.79;101848.84;5040368;28;20410;-83
2022/02/11 12:45:57;;;;;;;11.00;2.65;;;7.20;99.90;;;8.03;63.55;101852.25;5058889;28;20036;-81
2022/02/11 12:48:33;;;;;;;11.25;2.05;;;7.30;99.90;;;8.05;62.76;101849.97;5040902;28;20028;-82
2022/02/11 12:50:59;;;;;;;15.05;2.35;;;7.30;99.90;;;7.79;62.81;101844.97;5039788;28;20094;-81
2022/02/11 12:53:25;;;;;;;12.35;1.88;;;7.20;99.90;;;7.83;63.31;101857.09;5040262;28;20033;-80
2022/02/11 12:55:51;;;;;;;11.95;2.33;;;7.10;99.90;;;7.81;62.70;101850.19;5023356;28;20484;-83
2022/02/11 12:58:21;;;;;;;14.43;2.42;;;7.00;99.90;;;7.73;63.53;101857.31;5023181;28;20040;-83
2022/02/11 13:00:49;;;;;;;10.77;1.80;;;7.00;99.90;;;7.76;63.87;101853.94;5041294;28;20026;-81
2022/02/11 13:03:18;;;;;;;12.50;2.20;;;6.90;99.90;;;7.70;64.32;101851.56;5039786;28;20052;-81
2022/02/11 13:05:58;;;;;;;10.52;2.08;;;6.90;99.90;;;7.71;63.82;101855.97;5024100;28;20481;-81
2022/02/11 13:09:18;;;;;;;14.57;2.35;;;6.90;99.90;;;7.72;64.86;101849.28;5027357;28;20048;-82
2022/02/11 13:11:59;;;;;;;15.45;2.83;;;6.90;99.90;;;7.86;64.23;101867.63;5022346;28;20400;-82
2022/02/11 13:14:32;;;;;;;12.50;2.47;;;7.00;99.90;;;7.85;64.08;101865.13;5034367;28;20519;-79
2022/02/11 13:17:09;;;;;;;14.63;3.38;;;7.10;99.90;;;7.85;64.34;101874.31;5035966;28;20044;-79
2022/02/11 13:19:35;;;;;;;12.77;2.17;;;7.10;99.90;;;7.81;63.25;101867.72;5032129;28;20041;-82
2022/02/11 13:22:01;;;;;;;16.52;2.55;;;7.00;99.90;;;7.79;63.95;101881.13;5047907;28;20040;-82
2022/02/11 13:24:27;;;;;;;11.30;1.90;;;7.00;99.90;;;7.74;64.64;101886.75;5025925;28;20037;-82
2022/02/11 13:26:53;;;;;;;14.93;2.20;;;7.00;99.90;;;7.72;64.90;101883.47;5043944;28;20033;-83
2022/02/11 13:29:19;;;;;;;12.05;2.97;;;7.00;99.90;;;7.70;65.77;101891.31;5034081;28;20021;-80
2022/02/11 13:31:51;;;;;;;12.82;2.35;;;6.90;99.90;;;7.65;66.31;101890.56;5055326;28;20068;-82
2022/02/11 13:34:17;;;;;;;11.30;2.80;;;6.80;99.90;;;7.62;66.45;101902.31;5034724;28;20064;-81
2022/02/11 13:36:47;;;;;;;8.82;2.70;;;6.80;99.90;;;7.46;69.93;101912.09;5029080;28;20060;-82
2022/02/11 13:39:32;;;;;;;10.57;2.45;;;6.70;99.90;;;7.25;73.29;101925.53;5020168;28;20079;-81
2022/02/11 13:42:11;;;;;;;12.98;1.95;;;6.50;99.90;;;7.11;74.66;101927.44;5020306;28;20026;-80
2022/02/11 13:44:37;;;;;;;16.65;3.13;;;6.40;99.90;;;7.03;75.60;101928.16;5037636;28;20025;-82
2022/02/11 13:47:04;;;;;;;9.98;1.83;;;6.30;99.90;;;6.97;76.32;101927.41;5037354;28;20370;-83
2022/02/11 13:49:39;;;;;;;13.75;3.03;;;6.30;99.90;;;7.02;75.60;101935.66;5034329;28;20020;-82
2022/02/11 13:55:06;;;;;;;11.70;1.92;;;6.30;99.90;;;7.21;75.99;101938.38;5077813;28;20391;-79
2022/02/11 13:57:36;;;;;;;11.15;2.58;;;6.40;99.90;;;7.25;75.27;101945.00;5079202;28;20533;-82
2022/02/11 14:00:37;;;;;;;9.50;2.25;;;6.40;99.90;;;7.25;75.19;101942.22;5058901;28;20071;-81
2022/02/11 14:03:06;;;;;;;13.68;2.33;;;6.40;99.90;;;7.24;75.21;101949.72;5032710;28;20476;-83
2022/02/11 14:05:52;;;;;;;10.93;2.33;;;6.40;99.90;;;7.04;75.62;101955.63;5057456;28;20028;-80
2022/02/11 14:08:19;;;;;;;19.70;3.78;;;6.30;99.90;;;7.03;75.45;101933.72;5056587;28;20052;-84
2022/02/11 14:10:47;;;;;;;15.90;2.42;;;6.30;99.90;;;6.88;75.57;101948.66;5059244;28;20028;-83
2022/02/11 14:13:13;;;;;;;19.33;3.58;;;6.20;99.90;;;6.88;74.32;101954.22;5060360;28;20318;-83